Time;durP1;ratioP1;P1;durP2;ratioP2;P2;SDS_P1;SDS_P2;PMS_P1;PMS_P2;Temp;Humidity;BMP_temperature;BMP_pressure;BME280_temperature;BME280_humidity;BME280_pressure;Samples;Min_cycle;Max_cycle;Signal;HPM_P1;HPM_P2
2023/09/24 00:02:20;;;;;;;1.10;1.00;;;18.50;98.70;;;;;;5048753;28;20225;-66
2023/09/24 00:04:48;;;;;;;0.90;0.90;;;18.50;98.80;;;;;;5049426;28;20557;-66
2023/09/24 00:07:16;;;;;;;1.25;0.90;;;18.50;98.80;;;;;;5053279;28;20604;-67
2023/09/24 00:09:43;;;;;;;0.50;0.50;;;18.50;98.80;;;;;;5049929;28;20577;-66
2023/09/24 00:12:12;;;;;;;0.85;0.82;;;18.00;98.60;;;;;;5052450;28;20213;-66
2023/09/24 00:14:40;;;;;;;1.63;0.93;;;18.60;98.80;;;;;;5048945;28;20280;-67
2023/09/24 00:17:10;;;;;;;0.60;0.50;;;18.50;98.80;;;;;;5054694;28;20194;-66
2023/09/24 00:19:37;;;;;;;0.70;0.70;;;18.50;98.80;;;;;;5048687;28;20668;-67
2023/09/24 00:22:04;;;;;;;0.73;0.73;;;18.60;98.90;;;;;;5052959;28;20297;-67
2023/09/24 00:24:31;;;;;;;1.02;0.93;;;18.50;98.90;;;;;;5034301;28;20376;-67
2023/09/24 00:26:58;;;;;;;1.10;1.00;;;18.50;98.90;;;;;;5053660;28;20237;-67
2023/09/24 00:29:26;;;;;;;0.98;0.98;;;18.50;99.00;;;;;;5048749;28;20316;-67
2023/09/24 00:31:54;;;;;;;0.95;0.90;;;18.50;99.00;;;;;;5052890;28;20202;-67
2023/09/24 00:34:21;;;;;;;1.00;1.00;;;18.50;99.00;;;;;;5030672;28;20229;-67
2023/09/24 00:36:49;;;;;;;1.00;1.00;;;18.50;99.10;;;;;;5049008;28;20560;-66
2023/09/24 00:39:17;;;;;;;2.15;1.17;;;18.50;99.20;;;;;;5037589;28;20210;-66
2023/09/24 00:41:45;;;;;;;0.90;0.90;;;18.50;99.20;;;;;;5034473;28;20206;-67
2023/09/24 00:44:14;;;;;;;0.90;0.80;;;18.40;99.20;;;;;;5019802;28;20198;-67
2023/09/24 00:46:44;;;;;;;1.00;0.90;;;18.50;99.30;;;;;;5047707;28;20198;-66
2023/09/24 00:49:13;;;;;;;0.90;0.90;;;18.50;99.30;;;;;;5048268;28;20190;-67
2023/09/24 00:51:41;;;;;;;1.30;1.00;;;18.50;99.30;;;;;;5028387;28;20205;-67
2023/09/24 00:54:10;;;;;;;0.70;0.70;;;18.50;99.30;;;;;;5049486;28;20533;-67
2023/09/24 00:56:37;;;;;;;1.50;0.80;;;18.50;99.30;;;;;;5053012;28;20669;-66
2023/09/24 00:59:06;;;;;;;0.88;0.88;;;18.40;99.30;;;;;;5049210;28;20667;-66
2023/09/24 01:01:34;;;;;;;0.88;0.80;;;18.40;99.40;;;;;;5053122;28;20252;-65
2023/09/24 01:04:04;;;;;;;1.00;1.00;;;18.40;99.50;;;;;;5046231;28;20289;-66
2023/09/24 01:06:31;;;;;;;1.10;1.00;;;18.40;99.50;;;;;;5052006;28;20204;-66
2023/09/24 01:08:58;;;;;;;0.90;0.90;;;18.40;99.60;;;;;;5033594;28;20213;-66
2023/09/24 01:11:27;;;;;;;1.27;1.17;;;18.40;99.60;;;;;;5049896;28;20209;-66
2023/09/24 01:13:54;;;;;;;1.23;1.08;;;18.40;99.60;;;;;;5048625;28;20204;-67
2023/09/24 01:16:21;;;;;;;0.93;0.93;;;18.40;99.70;;;;;;5051121;28;20247;-66
2023/09/24 01:18:49;;;;;;;0.75;0.75;;;18.40;99.70;;;;;;5047450;28;20293;-67
2023/09/24 01:21:18;;;;;;;0.70;0.70;;;18.40;99.70;;;;;;5050557;28;20200;-66
2023/09/24 01:23:49;;;;;;;0.70;0.70;;;18.30;99.80;;;;;;5047567;28;20194;-67
2023/09/24 01:26:18;;;;;;;1.00;0.90;;;18.30;99.80;;;;;;5049732;28;20185;-66
2023/09/24 01:28:45;;;;;;;0.60;0.60;;;18.30;99.90;;;;;;5048596;28;20633;-67
2023/09/24 01:31:15;;;;;;;0.75;0.75;;;18.30;99.90;;;;;;5048245;28;20209;-66
2023/09/24 01:33:43;;;;;;;2.17;0.85;;;18.30;99.90;;;;;;5028790;28;20389;-67
2023/09/24 01:36:10;;;;;;;0.80;0.80;;;18.30;99.90;;;;;;5049647;28;20202;-66
2023/09/24 01:38:39;;;;;;;0.85;0.82;;;18.30;99.90;;;;;;5031998;28;20680;-66
2023/09/24 01:41:09;;;;;;;0.88;0.88;;;18.30;99.90;;;;;;5034888;28;20228;-65
2023/09/24 01:43:37;;;;;;;0.82;0.82;;;18.20;99.90;;;;;;5053018;28;20201;-66
2023/09/24 01:46:07;;;;;;;0.82;0.82;;;18.20;99.90;;;;;;5051363;28;20213;-66
2023/09/24 01:48:34;;;;;;;1.05;0.82;;;18.20;99.90;;;;;;5047246;28;20220;-65
2023/09/24 01:51:07;;;;;;;0.93;0.80;;;18.20;99.90;;;;;;5052023;28;20673;-66
2023/09/24 01:53:35;;;;;;;1.30;0.70;;;18.20;99.90;;;;;;5048523;28;20198;-67
2023/09/24 01:56:04;;;;;;;0.70;0.70;;;18.30;99.90;;;;;;5050494;28;20290;-67
2023/09/24 01:58:33;;;;;;;0.80;0.80;;;18.20;99.90;;;;;;5048015;28;20206;-67
2023/09/24 02:01:02;;;;;;;0.73;0.73;;;18.20;99.90;;;;;;5038936;28;20209;-66
2023/09/24 02:03:29;;;;;;;1.00;0.63;;;18.30;99.90;;;;;;5049885;28;20286;-66
2023/09/24 02:05:57;;;;;;;0.75;0.75;;;18.20;99.90;;;;;;5041634;28;20228;-66
2023/09/24 02:08:24;;;;;;;0.93;0.93;;;18.20;99.90;;;;;;5055027;28;20193;-66
2023/09/24 02:10:51;;;;;;;0.70;0.70;;;18.10;99.90;;;;;;5052891;28;20222;-66
2023/09/24 02:13:20;;;;;;;0.77;0.75;;;18.20;99.90;;;;;;5045564;28;20205;-66
2023/09/24 02:15:50;;;;;;;1.42;1.00;;;18.10;99.90;;;;;;5040541;28;20256;-66
2023/09/24 02:18:17;;;;;;;0.88;0.88;;;18.10;99.90;;;;;;5042081;28;20248;-66
2023/09/24 02:20:47;;;;;;;0.80;0.80;;;18.10;99.90;;;;;;5052634;28;20198;-66
2023/09/24 02:23:14;;;;;;;0.70;0.70;;;18.10;99.90;;;;;;5041546;28;20255;-66
2023/09/24 02:25:44;;;;;;;1.30;0.82;;;18.00;99.90;;;;;;5022667;28;20224;-66
2023/09/24 02:28:12;;;;;;;1.20;0.80;;;18.00;99.90;;;;;;5038971;28;20229;-67
2023/09/24 02:30:40;;;;;;;1.40;0.90;;;18.00;99.90;;;;;;5038365;28;20217;-66
2023/09/24 02:33:09;;;;;;;1.25;0.93;;;18.00;99.90;;;;;;5019365;28;20286;-67
2023/09/24 02:35:36;;;;;;;0.80;0.80;;;18.00;99.90;;;;;;5021437;28;20210;-66
2023/09/24 02:38:05;;;;;;;0.77;0.77;;;18.00;99.90;;;;;;5054048;28;20669;-67
2023/09/24 02:40:32;;;;;;;0.77;0.77;;;18.00;99.90;;;;;;5044914;28;20252;-67
2023/09/24 02:43:01;;;;;;;1.17;0.70;;;18.00;99.90;;;;;;5041863;28;20284;-67
2023/09/24 02:45:30;;;;;;;1.10;0.80;;;18.00;99.90;;;;;;5050986;28;20573;-67
2023/09/24 02:47:57;;;;;;;0.70;0.70;;;18.00;99.90;;;;;;5053294;28;20194;-67
2023/09/24 02:50:27;;;;;;;1.08;0.90;;;18.00;99.90;;;;;;5037342;28;20249;-66
2023/09/24 02:52:57;;;;;;;1.00;0.80;;;18.00;99.90;;;;;;5045651;28;20659;-66
2023/09/24 02:55:25;;;;;;;0.70;0.60;;;18.00;99.90;;;;;;5052477;28;20276;-66
2023/09/24 02:57:52;;;;;;;0.70;0.70;;;18.00;99.90;;;;;;5057370;28;20656;-67
2023/09/24 03:00:21;;;;;;;0.98;0.80;;;18.00;99.90;;;;;;5037399;28;20186;-66
2023/09/24 03:02:49;;;;;;;0.70;0.70;;;17.90;99.90;;;;;;5019814;28;20213;-67
2023/09/24 03:05:20;;;;;;;0.90;0.90;;;17.90;99.90;;;;;;5038670;28;20323;-67
2023/09/24 03:07:51;;;;;;;0.98;0.80;;;17.90;99.90;;;;;;5038892;28;20247;-67
2023/09/24 03:10:19;;;;;;;0.60;0.60;;;17.90;99.90;;;;;;5037321;28;20696;-66
2023/09/24 03:12:47;;;;;;;0.60;0.60;;;17.90;99.90;;;;;;5053480;28;20209;-67
2023/09/24 03:15:14;;;;;;;0.63;0.63;;;18.00;99.90;;;;;;5045232;28;20217;-67
2023/09/24 03:17:43;;;;;;;0.88;0.88;;;18.00;99.90;;;;;;5043743;28;20228;-67
2023/09/24 03:20:15;;;;;;;0.68;0.68;;;18.00;99.90;;;;;;5051744;28;20194;-67
2023/09/24 03:22:43;;;;;;;0.90;0.60;;;18.00;99.90;;;;;;5051007;28;20202;-66
2023/09/24 03:25:11;;;;;;;0.70;0.70;;;18.00;99.90;;;;;;5044036;28;20201;-66
2023/09/24 03:27:39;;;;;;;1.10;0.80;;;18.00;99.90;;;;;;5049965;28;20194;-66
2023/09/24 03:30:14;;;;;;;1.08;0.80;;;18.00;99.90;;;;;;5050525;28;20206;-67
2023/09/24 03:32:42;;;;;;;0.95;0.85;;;18.00;99.90;;;;;;5021728;28;20198;-66
2023/09/24 03:35:10;;;;;;;0.70;0.70;;;17.90;99.90;;;;;;5016318;28;20205;-66
2023/09/24 03:37:40;;;;;;;0.70;0.70;;;17.90;99.90;;;;;;5031540;28;20197;-66
2023/09/24 03:40:12;;;;;;;1.00;0.60;;;17.90;99.90;;;;;;5033026;28;20281;-67
2023/09/24 03:42:39;;;;;;;1.10;0.63;;;17.90;99.90;;;;;;5048694;28;20208;-66
2023/09/24 03:45:08;;;;;;;2.00;0.82;;;17.90;99.90;;;;;;5045980;28;20269;-66
2023/09/24 03:47:36;;;;;;;0.80;0.70;;;17.90;99.90;;;;;;5051954;28;20224;-66
2023/09/24 03:50:04;;;;;;;0.75;0.70;;;17.90;99.90;;;;;;5034851;28;20292;-66
2023/09/24 03:52:32;;;;;;;0.93;0.82;;;17.90;99.90;;;;;;5043656;28;20206;-67
2023/09/24 03:55:00;;;;;;;1.08;0.80;;;17.80;99.90;;;;;;5052358;28;20205;-68
2023/09/24 03:57:28;;;;;;;0.70;0.70;;;17.80;99.90;;;;;;5027760;28;20621;-67
2023/09/24 03:59:56;;;;;;;1.15;1.00;;;17.80;99.90;;;;;;5020748;28;20580;-67
2023/09/24 04:02:23;;;;;;;0.60;0.60;;;17.70;99.90;;;;;;5039891;28;20202;-67
2023/09/24 04:04:51;;;;;;;0.77;0.77;;;17.80;99.90;;;;;;5047856;28;20657;-67
2023/09/24 04:07:18;;;;;;;0.63;0.63;;;17.80;99.90;;;;;;5049781;28;20224;-67
2023/09/24 04:09:45;;;;;;;0.68;0.68;;;17.80;99.90;;;;;;5049176;28;20556;-67
2023/09/24 04:12:13;;;;;;;0.90;0.90;;;17.80;99.90;;;;;;5037610;28;20237;-67
2023/09/24 04:14:42;;;;;;;0.80;0.80;;;17.80;99.90;;;;;;5047007;28;20290;-67
2023/09/24 04:17:09;;;;;;;1.30;0.60;;;17.80;99.90;;;;;;5049189;28;20193;-67
2023/09/24 04:19:37;;;;;;;1.63;0.90;;;17.90;99.90;;;;;;5049080;28;20194;-67
2023/09/24 04:22:04;;;;;;;0.70;0.70;;;17.90;99.90;;;;;;5019248;28;20186;-66
2023/09/24 04:24:31;;;;;;;0.63;0.63;;;17.90;99.90;;;;;;5042466;28;20267;-67
2023/09/24 04:26:58;;;;;;;0.70;0.70;;;17.90;99.90;;;;;;5049985;28;20208;-67
2023/09/24 04:29:25;;;;;;;0.60;0.60;;;17.90;99.90;;;;;;5054748;28;20626;-67
2023/09/24 04:31:53;;;;;;;0.60;0.60;;;17.80;99.90;;;;;;5037481;28;20625;-66
2023/09/24 04:34:21;;;;;;;0.77;0.65;;;17.90;99.90;;;;;;5038367;28;20202;-65
2023/09/24 04:36:50;;;;;;;1.33;0.95;;;17.80;99.90;;;;;;5057048;28;20209;-66
2023/09/24 04:39:18;;;;;;;2.80;1.15;;;17.80;99.90;;;;;;5050291;28;20213;-66
2023/09/24 04:41:47;;;;;;;1.30;0.80;;;17.70;99.90;;;;;;5037543;28;20650;-66
2023/09/24 04:44:14;;;;;;;1.75;0.90;;;17.70;99.90;;;;;;5019824;28;20199;-66
2023/09/24 04:46:42;;;;;;;0.88;0.88;;;17.70;99.90;;;;;;5047267;28;20229;-66
2023/09/24 04:49:10;;;;;;;0.82;0.82;;;17.70;99.90;;;;;;5056234;28;20201;-65
2023/09/24 04:51:37;;;;;;;1.20;0.93;;;17.60;99.90;;;;;;5049301;28;20210;-67
2023/09/24 04:54:05;;;;;;;0.88;0.88;;;17.60;99.90;;;;;;5060921;28;20214;-66
2023/09/24 04:56:38;;;;;;;0.90;0.90;;;17.60;99.90;;;;;;5048667;28;20209;-67
2023/09/24 04:59:05;;;;;;;1.15;0.98;;;17.60;99.90;;;;;;5038904;28;20264;-67
2023/09/24 05:01:32;;;;;;;1.15;1.00;;;17.50;99.90;;;;;;5049975;28;20201;-66
2023/09/24 05:03:59;;;;;;;1.02;0.98;;;17.50;99.90;;;;;;5054627;28;20212;-66
2023/09/24 05:06:28;;;;;;;1.23;0.90;;;17.50;99.90;;;;;;5049644;28;20368;-66
2023/09/24 05:08:55;;;;;;;1.60;1.02;;;17.60;99.90;;;;;;5055101;28;20213;-66
2023/09/24 05:11:22;;;;;;;1.88;0.90;;;17.20;99.90;;;;;;5049716;28;20760;-66
2023/09/24 05:13:49;;;;;;;0.80;0.80;;;17.50;99.90;;;;;;5053136;28;20189;-66
2023/09/24 05:16:16;;;;;;;0.68;0.68;;;17.50;99.90;;;;;;5047157;28;20252;-66
2023/09/24 05:18:43;;;;;;;1.25;1.00;;;17.50;99.90;;;;;;5051191;28;20280;-66
2023/09/24 05:21:18;;;;;;;0.80;0.80;;;17.50;99.90;;;;;;5049070;28;20618;-66
2023/09/24 05:23:47;;;;;;;1.73;1.23;;;17.50;99.90;;;;;;5049366;28;20228;-66
2023/09/24 05:26:14;;;;;;;0.90;0.90;;;17.50;99.90;;;;;;5048347;28;20232;-67
2023/09/24 05:28:42;;;;;;;1.00;1.00;;;17.50;99.90;;;;;;5049588;28;20222;-67
2023/09/24 05:31:09;;;;;;;0.90;0.90;;;17.50;99.90;;;;;;5030821;28;20636;-66
2023/09/24 05:33:38;;;;;;;0.75;0.75;;;17.50;99.90;;;;;;5048984;28;20597;-65
2023/09/24 05:36:05;;;;;;;0.85;0.85;;;17.50;99.90;;;;;;5063990;28;20289;-66
2023/09/24 05:38:32;;;;;;;1.00;1.00;;;17.60;99.90;;;;;;5043656;28;20252;-66
2023/09/24 05:41:01;;;;;;;1.05;0.93;;;17.60;99.90;;;;;;5048832;28;20243;-66
2023/09/24 05:43:28;;;;;;;0.90;0.90;;;17.60;99.90;;;;;;5049249;28;20259;-66
2023/09/24 05:45:55;;;;;;;1.27;1.00;;;17.60;99.90;;;;;;5051747;28;20255;-66
2023/09/24 05:48:22;;;;;;;1.35;0.82;;;17.60;99.90;;;;;;5050225;28;20198;-66
2023/09/24 05:50:49;;;;;;;1.17;1.00;;;17.60;99.90;;;;;;5049210;28;20216;-66
2023/09/24 05:53:16;;;;;;;0.98;0.90;;;17.60;99.90;;;;;;5051926;28;20198;-66
2023/09/24 05:55:52;;;;;;;1.20;0.90;;;17.60;99.90;;;;;;5049628;28;20281;-66
2023/09/24 05:58:21;;;;;;;1.48;1.10;;;17.60;99.90;;;;;;5049172;28;20225;-65
2023/09/24 06:00:50;;;;;;;1.30;1.20;;;17.50;99.90;;;;;;5048795;28;20202;-66
2023/09/24 06:03:17;;;;;;;2.08;1.13;;;17.50;99.90;;;;;;5047822;28;20657;-66
2023/09/24 06:05:44;;;;;;;1.00;1.00;;;17.50;99.90;;;;;;5050609;28;20205;-66
2023/09/24 06:08:11;;;;;;;1.33;1.20;;;17.50;99.90;;;;;;5049312;28;20677;-66
2023/09/24 06:10:44;;;;;;;1.20;1.10;;;17.50;99.90;;;;;;5050172;28;20194;-66
2023/09/24 06:13:12;;;;;;;1.58;1.10;;;17.50;99.90;;;;;;5047587;28;20206;-66
2023/09/24 06:15:41;;;;;;;2.45;1.35;;;17.50;99.90;;;;;;5041166;28;20682;-66
2023/09/24 06:18:08;;;;;;;1.23;1.13;;;17.50;99.90;;;;;;5047111;28;20201;-66
2023/09/24 06:20:38;;;;;;;1.05;1.00;;;17.50;99.90;;;;;;5056291;28;20201;-66
2023/09/24 06:23:06;;;;;;;1.15;1.10;;;17.50;99.90;;;;;;5052627;28;20205;-66
2023/09/24 06:25:33;;;;;;;1.38;1.27;;;17.40;99.90;;;;;;5037843;28;20601;-64
2023/09/24 06:28:00;;;;;;;1.88;1.30;;;17.50;99.90;;;;;;5052105;28;20197;-65
2023/09/24 06:30:27;;;;;;;4.18;1.30;;;17.50;99.90;;;;;;5057545;28;20201;-66
2023/09/24 06:32:59;;;;;;;1.00;1.00;;;17.50;99.90;;;;;;5051992;28;20217;-66
2023/09/24 06:35:26;;;;;;;1.63;1.23;;;17.50;99.90;;;;;;5055244;28;20209;-66
2023/09/24 06:37:53;;;;;;;1.33;1.10;;;17.50;99.90;;;;;;5054274;28;20328;-66
2023/09/24 06:40:20;;;;;;;1.10;1.10;;;17.50;99.90;;;;;;5057899;28;20254;-66
2023/09/24 06:42:47;;;;;;;1.27;1.17;;;17.50;99.90;;;;;;5058616;28;20537;-66
2023/09/24 06:45:14;;;;;;;1.05;1.00;;;17.60;99.90;;;;;;5057218;28;20197;-66
2023/09/24 06:47:41;;;;;;;2.03;1.00;;;17.60;99.90;;;;;;5040659;28;20568;-66
2023/09/24 06:50:11;;;;;;;1.45;1.10;;;17.60;99.90;;;;;;5055246;28;20185;-67
2023/09/24 06:52:39;;;;;;;1.70;1.30;;;17.70;99.90;;;;;;5050246;28;20309;-65
2023/09/24 06:55:08;;;;;;;1.10;1.10;;;17.70;99.90;;;;;;5036609;28;20281;-65
2023/09/24 06:57:38;;;;;;;0.88;0.70;;;17.80;99.90;;;;;;5046125;28;20602;-65
2023/09/24 07:00:08;;;;;;;1.05;0.90;;;17.90;99.90;;;;;;5053334;28;20217;-65
2023/09/24 07:02:35;;;;;;;1.40;1.30;;;17.90;99.90;;;;;;5033484;28;20269;-65
2023/09/24 07:05:04;;;;;;;0.98;0.90;;;18.00;99.90;;;;;;5051965;28;20624;-66
2023/09/24 07:07:33;;;;;;;3.38;1.17;;;18.10;99.90;;;;;;5054424;28;20214;-66
2023/09/24 07:10:01;;;;;;;1.40;1.02;;;18.20;99.90;;;;;;5056208;28;20664;-66
2023/09/24 07:12:30;;;;;;;0.82;0.82;;;18.20;99.90;;;;;;5053144;28;20834;-66
2023/09/24 07:14:57;;;;;;;1.38;1.27;;;18.30;99.90;;;;;;5052700;28;20201;-67
2023/09/24 07:17:24;;;;;;;2.20;1.23;;;18.40;99.90;;;;;;5051793;28;20229;-67
2023/09/24 07:19:52;;;;;;;1.23;1.00;;;18.40;99.90;;;;;;5051777;28;20208;-67
2023/09/24 07:22:24;;;;;;;1.00;1.00;;;18.50;99.90;;;;;;5034085;28;20289;-67
2023/09/24 07:24:53;;;;;;;1.00;1.00;;;18.50;99.90;;;;;;5051625;28;20228;-67
2023/09/24 07:27:20;;;;;;;2.78;1.10;;;18.60;99.90;;;;;;5062187;28;20202;-67
2023/09/24 07:29:48;;;;;;;0.90;0.90;;;18.60;99.90;;;;;;5052027;28;20224;-67
2023/09/24 07:32:15;;;;;;;1.60;1.05;;;18.70;99.90;;;;;;5047585;28;20214;-67
2023/09/24 07:34:42;;;;;;;1.90;1.00;;;18.70;99.90;;;;;;5050735;28;20920;-66
2023/09/24 07:37:09;;;;;;;1.63;1.02;;;18.80;99.90;;;;;;5057786;28;20194;-67
2023/09/24 07:39:36;;;;;;;0.80;0.80;;;18.80;99.90;;;;;;5055187;28;20208;-67
2023/09/24 07:42:05;;;;;;;1.30;1.20;;;18.90;99.90;;;;;;5058914;28;20589;-67
2023/09/24 07:44:35;;;;;;;0.98;0.98;;;19.00;99.90;;;;;;5051378;28;20201;-66
2023/09/24 07:47:02;;;;;;;0.90;0.90;;;19.20;99.90;;;;;;5058109;28;20202;-67
2023/09/24 07:49:29;;;;;;;1.00;1.00;;;20.10;99.90;;;;;;5043183;28;20225;-66
2023/09/24 07:51:56;;;;;;;0.82;0.82;;;21.10;99.90;;;;;;5055016;28;20217;-66
2023/09/24 07:54:27;;;;;;;0.80;0.80;;;22.00;99.90;;;;;;5052515;28;20256;-66
2023/09/24 07:56:54;;;;;;;0.80;0.80;;;23.10;99.90;;;;;;5053026;28;20217;-66
2023/09/24 07:59:23;;;;;;;0.73;0.73;;;24.20;98.40;;;;;;5052641;28;20282;-66
2023/09/24 08:01:50;;;;;;;1.10;0.65;;;25.10;97.00;;;;;;5051380;28;20248;-67
2023/09/24 08:04:19;;;;;;;0.80;0.80;;;26.10;95.70;;;;;;5050015;28;20197;-65
2023/09/24 08:06:46;;;;;;;1.08;0.80;;;26.90;94.10;;;;;;5049097;28;20274;-66
2023/09/24 08:09:14;;;;;;;0.70;0.70;;;27.40;93.10;;;;;;5050933;28;20201;-66
2023/09/24 08:11:41;;;;;;;0.80;0.80;;;27.80;92.30;;;;;;5050675;28;20202;-66
2023/09/24 08:14:08;;;;;;;0.80;0.80;;;27.40;91.80;;;;;;5049267;28;20197;-67
2023/09/24 08:16:37;;;;;;;0.85;0.85;;;26.70;92.20;;;;;;5055030;28;20200;-66
2023/09/24 08:19:06;;;;;;;0.88;0.88;;;25.80;92.70;;;;;;5056979;28;20661;-66
2023/09/24 08:21:33;;;;;;;0.50;0.50;;;24.90;93.10;;;;;;5053133;28;20277;-65
2023/09/24 08:24:00;;;;;;;0.60;0.60;;;24.10;93.90;;;;;;5053685;28;20232;-65
2023/09/24 08:26:27;;;;;;;0.80;0.80;;;23.30;94.40;;;;;;5031853;28;20197;-67
2023/09/24 08:28:54;;;;;;;0.82;0.82;;;22.70;94.90;;;;;;5050464;28;20228;-66
2023/09/24 08:31:25;;;;;;;1.13;0.90;;;22.30;95.50;;;;;;5046516;28;20609;-66
2023/09/24 08:33:53;;;;;;;1.45;0.77;;;21.90;96.30;;;;;;5052958;28;20216;-65
2023/09/24 08:36:21;;;;;;;1.00;0.90;;;21.70;96.50;;;;;;5049131;28;20802;-66
2023/09/24 08:38:48;;;;;;;0.90;0.82;;;21.50;96.80;;;;;;5044974;28;20201;-67
2023/09/24 08:41:15;;;;;;;2.08;0.90;;;21.30;97.10;;;;;;5048564;28;20205;-67
2023/09/24 08:43:43;;;;;;;1.00;1.00;;;21.20;97.30;;;;;;5052569;28;20248;-67
2023/09/24 08:46:11;;;;;;;1.48;0.77;;;21.10;97.40;;;;;;5052358;28;20204;-65
2023/09/24 08:48:39;;;;;;;1.58;1.00;;;21.00;97.50;;;;;;5034240;28;20225;-66
2023/09/24 08:51:09;;;;;;;1.25;0.80;;;20.90;97.60;;;;;;5048980;28;20225;-66
2023/09/24 08:53:38;;;;;;;1.40;0.82;;;20.80;97.70;;;;;;5061448;28;20289;-66
2023/09/24 08:56:05;;;;;;;0.73;0.73;;;20.80;97.90;;;;;;5031571;28;20202;-66
2023/09/24 08:58:33;;;;;;;1.13;0.90;;;20.70;97.90;;;;;;5054646;28;20194;-66
2023/09/24 09:01:02;;;;;;;2.00;0.90;;;20.60;97.90;;;;;;5048468;28;20578;-66
2023/09/24 09:03:29;;;;;;;1.65;0.70;;;20.60;98.00;;;;;;5058492;28;20248;-66
2023/09/24 09:05:57;;;;;;;1.55;0.80;;;20.70;98.10;;;;;;5049229;28;20201;-66
2023/09/24 09:08:25;;;;;;;4.40;1.25;;;20.80;98.20;;;;;;5058109;28;20277;-67
2023/09/24 09:10:52;;;;;;;0.70;0.57;;;20.80;98.10;;;;;;5049689;28;20235;-65
2023/09/24 09:13:20;;;;;;;0.85;0.85;;;20.90;98.00;;;;;;5056231;28;20210;-68
2023/09/24 09:16:01;;;;;;;0.75;0.75;;;20.80;97.90;;;;;;5048524;28;20209;-66
2023/09/24 09:18:29;;;;;;;1.05;0.60;;;20.80;97.90;;;;;;5046193;28;20239;-66
2023/09/24 09:20:59;;;;;;;0.82;0.77;;;20.80;97.90;;;;;;5031271;28;20210;-66
2023/09/24 09:23:35;;;;;;;1.17;0.82;;;20.90;97.90;;;;;;5049581;28;20197;-66
2023/09/24 09:26:03;;;;;;;1.75;0.80;;;20.90;97.90;;;;;;5038295;28;20213;-66
2023/09/24 09:28:31;;;;;;;0.50;0.50;;;21.00;97.60;;;;;;5051946;28;20229;-66
2023/09/24 09:31:03;;;;;;;1.65;0.68;;;21.00;97.50;;;;;;5049243;28;20194;-66
2023/09/24 09:33:31;;;;;;;0.85;0.70;;;21.10;97.40;;;;;;5048589;28;20202;-66
2023/09/24 09:35:58;;;;;;;1.60;0.98;;;21.10;97.30;;;;;;5047525;28;20198;-65
2023/09/24 09:38:26;;;;;;;1.27;0.93;;;21.20;97.20;;;;;;5049887;28;20285;-65
2023/09/24 09:40:56;;;;;;;0.77;0.77;;;21.20;97.10;;;;;;5041950;28;20203;-65
2023/09/24 09:43:25;;;;;;;1.42;0.70;;;21.30;97.00;;;;;;5053936;28;20289;-66
2023/09/24 09:45:55;;;;;;;0.82;0.82;;;21.30;96.90;;;;;;5054851;28;20201;-66
2023/09/24 09:48:30;;;;;;;0.77;0.77;;;21.60;97.00;;;;;;5050333;28;20617;-66
2023/09/24 09:51:06;;;;;;;1.70;0.70;;;22.80;96.20;;;;;;5048739;28;20280;-66
2023/09/24 09:53:35;;;;;;;0.50;0.50;;;24.00;94.90;;;;;;5053777;28;20227;-65
2023/09/24 09:56:06;;;;;;;1.25;1.10;;;25.10;93.40;;;;;;5049029;28;20232;-66
2023/09/24 09:58:38;;;;;;;0.77;0.70;;;25.60;92.00;;;;;;5047934;28;20289;-65
2023/09/24 10:01:06;;;;;;;1.00;0.82;;;25.40;91.70;;;;;;5049108;28;20305;-66
2023/09/24 10:03:36;;;;;;;0.70;0.60;;;25.30;91.70;;;;;;5052466;28;20631;-66
2023/09/24 10:06:05;;;;;;;0.68;0.68;;;24.70;91.90;;;;;;5052727;28;20193;-66
2023/09/24 10:08:43;;;;;;;0.57;0.57;;;24.20;92.10;;;;;;5049111;28;20308;-65
2023/09/24 10:11:13;;;;;;;0.75;0.63;;;23.60;92.40;;;;;;5052906;28;20291;-65
2023/09/24 10:13:50;;;;;;;1.40;0.70;;;23.10;92.60;;;;;;5052801;28;20233;-66
2023/09/24 10:16:30;;;;;;;1.25;0.75;;;22.70;93.00;;;;;;5053424;28;20221;-66
2023/09/24 10:18:59;;;;;;;0.93;0.70;;;22.40;93.20;;;;;;5035926;28;20209;-66
2023/09/24 10:21:31;;;;;;;0.98;0.77;;;22.20;93.30;;;;;;5052618;28;20288;-66
2023/09/24 10:23:59;;;;;;;1.80;0.73;;;22.10;93.40;;;;;;5053195;28;20244;-66
2023/09/24 10:26:49;;;;;;;0.65;0.52;;;22.00;93.30;;;;;;5052744;28;20637;-67
2023/09/24 10:29:17;;;;;;;1.55;0.85;;;22.10;93.30;;;;;;5053509;28;20198;-66
2023/09/24 10:32:14;;;;;;;1.52;0.45;;;22.50;92.90;;;;;;5047313;28;20201;-66
2023/09/24 10:35:09;;;;;;;0.98;0.70;;;22.90;92.50;;;;;;5052198;28;20205;-66
2023/09/24 10:37:38;;;;;;;0.75;0.75;;;22.70;92.30;;;;;;5046431;28;20197;-66
2023/09/24 10:40:12;;;;;;;1.08;0.60;;;22.50;92.40;;;;;;5059251;28;20280;-66
2023/09/24 10:42:43;;;;;;;0.65;0.65;;;22.50;92.70;;;;;;5052601;28;20380;-66
2023/09/24 10:45:28;;;;;;;0.90;0.55;;;22.80;92.50;;;;;;5061160;28;20212;-66
2023/09/24 10:47:55;;;;;;;0.88;0.47;;;23.50;91.90;;;;;;5051524;28;20255;-66
2023/09/24 10:50:23;;;;;;;0.73;0.73;;;24.00;91.30;;;;;;5054277;28;20213;-66
2023/09/24 10:52:51;;;;;;;0.73;0.73;;;24.60;90.90;;;;;;5059459;28;20224;-65
2023/09/24 10:55:20;;;;;;;0.60;0.60;;;25.10;90.50;;;;;;5056797;28;20194;-65
2023/09/24 10:57:50;;;;;;;0.60;0.60;;;25.90;89.80;;;;;;5050322;28;20209;-67
2023/09/24 11:00:18;;;;;;;0.60;0.60;;;26.50;87.60;;;;;;5057325;28;20201;-68
2023/09/24 11:02:45;;;;;;;0.47;0.47;;;27.00;85.40;;;;;;5051332;28;20222;-67
2023/09/24 11:05:13;;;;;;;0.47;0.47;;;27.40;83.70;;;;;;5045882;28;20205;-65
2023/09/24 11:07:40;;;;;;;0.60;0.60;;;27.80;82.50;;;;;;5050645;28;20190;-66
2023/09/24 11:10:08;;;;;;;0.60;0.60;;;28.10;81.30;;;;;;5052296;28;20198;-65
2023/09/24 11:12:35;;;;;;;0.60;0.60;;;28.30;80.20;;;;;;5051091;28;20202;-66
2023/09/24 11:15:04;;;;;;;0.60;0.60;;;28.30;79.50;;;;;;5050540;28;20198;-65
2023/09/24 11:17:33;;;;;;;0.40;0.40;;;28.10;78.90;;;;;;5055390;28;20307;-66
2023/09/24 11:20:00;;;;;;;0.45;0.45;;;27.50;78.90;;;;;;5051497;28;20281;-66
2023/09/24 11:22:29;;;;;;;0.43;0.43;;;27.00;79.60;;;;;;5051542;28;20276;-66
2023/09/24 11:25:06;;;;;;;0.60;0.60;;;26.70;80.00;;;;;;5057878;28;20198;-66
2023/09/24 11:27:34;;;;;;;0.40;0.40;;;26.30;80.60;;;;;;5044848;28;20273;-67
2023/09/24 11:30:03;;;;;;;0.57;0.57;;;26.30;80.80;;;;;;5058512;28;20206;-66
2023/09/24 11:32:31;;;;;;;0.63;0.60;;;26.40;80.40;;;;;;5046869;28;20672;-66
2023/09/24 11:35:08;;;;;;;0.60;0.60;;;26.50;79.80;;;;;;5057191;28;20653;-66
2023/09/24 11:37:53;;;;;;;0.70;0.70;;;26.50;79.30;;;;;;5053469;28;20204;-68
2023/09/24 11:40:28;;;;;;;1.05;0.70;;;26.30;79.20;;;;;;5051699;28;20616;-65
2023/09/24 11:42:57;;;;;;;0.60;0.60;;;26.00;79.30;;;;;;5048197;28;20197;-66
2023/09/24 11:45:48;;;;;;;0.70;0.70;;;25.60;80.00;;;;;;5052553;28;20244;-65
2023/09/24 11:48:16;;;;;;;0.50;0.50;;;25.30;80.60;;;;;;5039655;28;20189;-66
2023/09/24 11:50:45;;;;;;;1.65;0.60;;;25.30;80.40;;;;;;5055618;28;20207;-66
2023/09/24 11:53:12;;;;;;;0.60;0.60;;;25.60;80.70;;;;;;5055688;28;20217;-65
2023/09/24 11:55:41;;;;;;;0.60;0.60;;;25.70;78.60;;;;;;5053903;28;20201;-66
2023/09/24 11:58:09;;;;;;;0.80;0.80;;;25.80;78.00;;;;;;5051282;28;20198;-67
2023/09/24 12:00:37;;;;;;;0.63;0.60;;;26.00;77.70;;;;;;5051094;28;20669;-66
2023/09/24 12:03:07;;;;;;;0.93;0.70;;;26.10;76.60;;;;;;5022143;28;20208;-65
2023/09/24 12:05:34;;;;;;;0.75;0.75;;;25.80;75.70;;;;;;5049658;28;20730;-66
2023/09/24 12:08:03;;;;;;;1.17;0.80;;;25.70;75.80;;;;;;5041082;28;20228;-66
2023/09/24 12:10:30;;;;;;;0.55;0.55;;;25.60;75.80;;;;;;5056731;28;20569;-67
2023/09/24 12:13:01;;;;;;;0.70;0.70;;;25.40;76.30;;;;;;5055148;28;20189;-66
2023/09/24 12:15:30;;;;;;;0.57;0.57;;;25.40;76.60;;;;;;5057630;28;20676;-66
2023/09/24 12:17:59;;;;;;;0.50;0.50;;;25.30;76.20;;;;;;5049987;28;20568;-65
2023/09/24 12:20:29;;;;;;;0.60;0.60;;;25.20;75.60;;;;;;5053105;28;20202;-66
2023/09/24 12:22:57;;;;;;;0.65;0.65;;;24.90;75.20;;;;;;5050491;28;20251;-65
2023/09/24 12:25:24;;;;;;;0.63;0.63;;;25.00;75.20;;;;;;5051526;28;20634;-66
2023/09/24 12:27:51;;;;;;;0.65;0.60;;;25.40;74.10;;;;;;5049973;28;20685;-66
2023/09/24 12:30:19;;;;;;;1.45;0.88;;;25.80;72.50;;;;;;5050741;28;20194;-65
2023/09/24 12:32:46;;;;;;;0.60;0.60;;;25.60;71.80;;;;;;5038749;28;20206;-66
2023/09/24 12:35:13;;;;;;;1.35;0.95;;;25.40;72.00;;;;;;5048993;28;20228;-66
2023/09/24 12:37:43;;;;;;;0.82;0.82;;;25.20;72.10;;;;;;5053760;28;20198;-66
2023/09/24 12:40:11;;;;;;;1.17;0.70;;;25.20;72.20;;;;;;5055607;28;20263;-67
2023/09/24 12:42:40;;;;;;;1.48;0.70;;;25.20;71.80;;;;;;5050634;28;20201;-66
2023/09/24 12:45:08;;;;;;;1.10;0.90;;;25.40;71.60;;;;;;5054726;28;20364;-65
2023/09/24 12:47:36;;;;;;;1.30;0.90;;;25.40;71.00;;;;;;5050905;28;20225;-65
2023/09/24 12:50:06;;;;;;;0.68;0.60;;;25.30;71.20;;;;;;5053393;28;20199;-67
2023/09/24 12:52:35;;;;;;;0.70;0.70;;;25.20;70.80;;;;;;5063072;28;20200;-67
2023/09/24 12:55:06;;;;;;;1.13;0.68;;;24.90;71.20;;;;;;5051337;28;20662;-66
2023/09/24 12:57:33;;;;;;;1.13;1.05;;;24.60;71.10;;;;;;5063194;28;20536;-65